createdAt,value
2023-04-21T00:02:09.155Z,21.6
2023-04-21T00:08:03.722Z,21.6
2023-04-21T00:13:55.075Z,21.6
2023-04-21T00:19:46.047Z,21.5
2023-04-21T00:25:38.005Z,21.5
2023-04-21T00:37:05.550Z,21.6
2023-04-21T00:48:34.489Z,21.6
2023-04-21T00:59:47.512Z,21.6
2023-04-21T01:05:26.202Z,21.6
2023-04-21T01:16:54.131Z,21.5
2023-04-21T01:22:45.459Z,21.6
2023-04-21T01:28:36.848Z,21.6
2023-04-21T01:34:28.776Z,21.6
2023-04-21T01:45:25.194Z,21.6
2023-04-21T01:51:02.317Z,21.6
2023-04-21T02:02:14.753Z,21.5
2023-04-21T02:08:08.010Z,21.5
2023-04-21T02:13:59.181Z,21.6
2023-04-21T02:20:08.432Z,21.6
2023-04-21T02:25:59.996Z,21.6
2023-04-21T02:31:43.284Z,21.6
2023-04-21T02:37:34.263Z,21.6
2023-04-21T02:43:25.988Z,21.6
2023-04-21T02:49:17.844Z,21.6
2023-04-21T02:55:09.562Z,21.5
2023-04-21T03:01:01.926Z,21.6
2023-04-21T03:06:54.579Z,21.6
2023-04-21T03:12:46.036Z,21.6
2023-04-21T03:18:39.185Z,21.6
2023-04-21T03:24:30.729Z,21.6
2023-04-21T03:36:00.189Z,21.6
2023-04-21T03:42:03.386Z,21.6
2023-04-21T03:47:55.753Z,21.6
2023-04-21T03:53:49.702Z,21.6
2023-04-21T03:59:40.272Z,21.6
2023-04-21T04:05:35.930Z,21.6
2023-04-21T04:11:27.617Z,21.6
2023-04-21T04:16:48.503Z,21.6
2023-04-21T04:22:40.113Z,21.6
2023-04-21T04:28:31.717Z,21.6
2023-04-21T04:34:10.892Z,21.6
2023-04-21T04:40:01.950Z,21.6
2023-04-21T04:45:56.114Z,21.6
2023-04-21T04:51:50.318Z,21.6
2023-04-21T04:57:41.210Z,21.6
2023-04-21T05:03:33.506Z,21.6
2023-04-21T05:09:10.852Z,21.6
2023-04-21T05:15:02.484Z,21.6
2023-04-21T05:20:57.455Z,21.6
2023-04-21T05:26:51.887Z,21.6
2023-04-21T05:32:43.782Z,21.6
2023-04-21T05:38:38.900Z,21.6
2023-04-21T05:44:30.859Z,21.6
2023-04-21T05:55:14.421Z,21.6
2023-04-21T06:01:05.873Z,21.6
2023-04-21T06:06:45.795Z,21.6
2023-04-21T06:12:22.354Z,21.6
2023-04-21T06:18:13.755Z,21.6
2023-04-21T06:23:49.448Z,21.6
2023-04-21T06:29:26.613Z,21.6
2023-04-21T06:35:06.140Z,21.7
2023-04-21T06:40:57.690Z,21.6
2023-04-21T06:46:50.289Z,21.7
2023-04-21T06:52:26.289Z,21.7
2023-04-21T06:58:01.580Z,21.6
2023-04-21T07:03:58.380Z,21.6
2023-04-21T07:09:50.572Z,21.7
2023-04-21T07:15:41.329Z,21.7
2023-04-21T07:21:34.052Z,21.7
2023-04-21T07:27:25.553Z,21.7
2023-04-21T07:33:01.028Z,21.7
2023-04-21T07:38:53.264Z,21.7
2023-04-21T07:44:44.336Z,21.7
2023-04-21T07:50:35.467Z,21.7
2023-04-21T07:56:27.563Z,21.7
2023-04-21T08:02:03.677Z,21.7
2023-04-21T08:08:03.187Z,21.8
2023-04-21T08:13:56.207Z,21.8
2023-04-21T08:19:32.798Z,21.8
2023-04-21T08:25:12.840Z,21.8
2023-04-21T08:30:49.585Z,21.8
2023-04-21T08:37:18.841Z,21.8
2023-04-21T08:43:15.171Z,21.8
2023-04-21T08:49:10.343Z,21.8
2023-04-21T08:55:02.844Z,21.8
2023-04-21T09:01:09.793Z,21.8
2023-04-21T09:06:38.106Z,21.8
2023-04-21T09:12:31.630Z,21.8
2023-04-21T09:24:00.522Z,21.8
2023-04-21T09:29:54.548Z,21.8
2023-04-21T09:36:06.664Z,21.8
2023-04-21T09:42:42.012Z,21.8
2023-04-21T09:48:58.265Z,21.9
2023-04-21T09:55:49.992Z,21.9
2023-04-21T10:01:26.415Z,21.9
2023-04-21T10:07:22.113Z,21.9
2023-04-21T10:13:15.088Z,21.9
2023-04-21T10:19:07.811Z,21.9
2023-04-21T10:25:00.003Z,21.9
2023-04-21T10:31:02.715Z,21.9
2023-04-21T10:36:56.002Z,21.9
2023-04-21T10:42:52.151Z,21.9
2023-04-21T10:48:43.805Z,21.9
2023-04-21T10:54:36.321Z,21.9
2023-04-21T11:00:27.489Z,21.9
2023-04-21T11:06:24.362Z,21.9
2023-04-21T11:12:17.921Z,22
2023-04-21T11:18:09.432Z,22
2023-04-21T11:24:00.494Z,22
2023-04-21T11:29:52.415Z,22
2023-04-21T11:35:28.520Z,21.9
2023-04-21T11:41:20.184Z,21.9
2023-04-21T11:47:12.989Z,21.9
2023-04-21T11:52:49.259Z,21.9
2023-04-21T11:58:41.467Z,21.9
2023-04-21T12:04:34.797Z,21.8
2023-04-21T12:10:12.122Z,21.8
2023-04-21T12:16:05.733Z,21.8
2023-04-21T12:21:58.253Z,21.8
2023-04-21T12:27:49.582Z,21.8
2023-04-21T12:33:44.991Z,21.7
2023-04-21T12:39:38.127Z,21.6
2023-04-21T12:45:29.375Z,21.6
2023-04-21T12:51:23.352Z,21.6
2023-04-21T12:57:10.014Z,21.6
2023-04-21T13:03:04.753Z,21.5
2023-04-21T13:08:57.676Z,21.5
2023-04-21T13:14:35.146Z,21.4
2023-04-21T13:20:26.621Z,21.4
2023-04-21T13:26:20.146Z,21.4
2023-04-21T13:32:11.892Z,21.4
2023-04-21T13:43:47.418Z,21.3
2023-04-21T13:49:40.291Z,21.3
2023-04-21T13:55:33.714Z,21.3
2023-04-21T14:01:09.901Z,21.3
2023-04-21T14:06:50.977Z,21.2
2023-04-21T14:12:29.693Z,21.2
2023-04-21T14:19:08.138Z,21.2
2023-04-21T14:24:59.560Z,21.2
2023-04-21T14:53:35.068Z,21.1
2023-04-21T15:05:23.494Z,21.1
2023-04-21T15:11:03.857Z,21.1
2023-04-21T15:22:27.084Z,21.2
2023-04-21T15:50:57.947Z,21.1
2023-04-21T15:56:50.133Z,21.1
2023-04-21T16:02:44.388Z,21.1
2023-04-21T16:08:24.771Z,21
2023-04-21T16:14:16.116Z,21
2023-04-21T16:20:44.483Z,21
2023-04-21T16:26:37.948Z,21
2023-04-21T16:32:30.237Z,20.9
2023-04-21T16:38:24.850Z,20.9
2023-04-21T16:44:17.112Z,20.9
2023-04-21T16:50:10.442Z,20.9
2023-04-21T16:56:01.900Z,20.9
2023-04-21T17:01:53.245Z,20.8
2023-04-21T17:07:47.220Z,20.8
2023-04-21T17:13:38.371Z,20.8
2023-04-21T17:19:32.346Z,20.8
2023-04-21T17:25:41.051Z,20.8
2023-04-21T17:31:47.335Z,20.8
2023-04-21T17:38:07.311Z,20.8
2023-04-21T17:43:58.991Z,20.7
2023-04-21T17:49:50.794Z,20.7
2023-04-21T17:55:27.388Z,20.7
2023-04-21T18:01:18.849Z,20.7
2023-04-21T18:06:57.686Z,20.7
2023-04-21T18:12:34.799Z,20.7
2023-04-21T18:18:11.818Z,20.7
2023-04-21T18:23:48.209Z,20.6
2023-04-21T18:29:23.658Z,20.6
2023-04-21T18:34:59.680Z,20.6
2023-04-21T18:45:41.521Z,20.6
2023-04-21T18:51:18.597Z,20.6
2023-04-21T18:56:54.631Z,20.6
2023-04-21T19:02:31.410Z,20.6
2023-04-21T19:08:09.271Z,20.6
2023-04-21T19:14:16.180Z,20.6
2023-04-21T19:20:21.925Z,20.5
2023-04-21T19:26:13.271Z,20.5
2023-04-21T19:32:04.642Z,20.5
2023-04-21T19:37:57.818Z,20.5
2023-04-21T19:43:48.607Z,20.6
2023-04-21T19:49:41.457Z,20.6
2023-04-21T19:55:49.840Z,20.7
2023-04-21T20:01:57.382Z,20.8
2023-04-21T20:07:51.649Z,20.8
2023-04-21T20:13:42.795Z,20.9
2023-04-21T20:19:34.483Z,20.9
2023-04-21T20:25:26.172Z,21
2023-04-21T20:31:04.764Z,21.1
2023-04-21T20:48:22.717Z,21.3
2023-04-21T20:54:13.928Z,21.3
2023-04-21T21:00:05.049Z,21.3
2023-04-21T21:06:01.415Z,21.3
2023-04-21T21:11:56.332Z,21.4
2023-04-21T21:23:23.801Z,21.4
2023-04-21T21:29:14.382Z,21.5
2023-04-21T21:35:06.673Z,21.6
2023-04-21T21:40:58.666Z,21.6
2023-04-21T21:46:50.876Z,21.6
2023-04-21T21:52:46.586Z,21.6
2023-04-21T21:58:22.787Z,21.6
2023-04-21T22:04:19.667Z,21.6
2023-04-21T22:10:13.626Z,21.6
2023-04-21T22:16:17.393Z,21.7
2023-04-21T22:22:08.724Z,21.7
2023-04-21T22:33:36.688Z,21.8
2023-04-21T22:39:27.415Z,21.8
2023-04-21T22:45:18.591Z,21.8
2023-04-21T22:51:11.188Z,21.8
2023-04-21T22:57:03.062Z,21.8
2023-04-21T23:02:55.837Z,21.8
2023-04-21T23:08:33.380Z,21.8
2023-04-21T23:14:25.280Z,21.8
2023-04-21T23:20:17.715Z,21.8
2023-04-21T23:26:09.213Z,21.8
2023-04-21T23:32:00.992Z,21.9
2023-04-21T23:37:52.976Z,21.9
2023-04-21T23:43:44.796Z,21.9
2023-04-21T23:49:37.332Z,21.9
2023-04-21T23:55:14.540Z,21.9
